sensor_id;sensor_type;location;lat;lon;timestamp;P1;durP1;ratioP1;P2;durP2;ratioP2
71503;SDS011;59323;50.874;7.028;2022-10-16T00:01:14;2.43;;;1.13;;
71503;SDS011;59323;50.874;7.028;2022-10-16T00:03:41;3.75;;;1.10;;
71503;SDS011;59323;50.874;7.028;2022-10-16T00:06:08;5.07;;;1.30;;
71503;SDS011;59323;50.874;7.028;2022-10-16T00:08:34;2.83;;;1.38;;
71503;SDS011;59323;50.874;7.028;2022-10-16T00:14:08;2.17;;;1.07;;
71503;SDS011;59323;50.874;7.028;2022-10-16T00:16:39;2.05;;;0.80;;
71503;SDS011;59323;50.874;7.028;2022-10-16T00:19:04;2.83;;;0.88;;
71503;SDS011;59323;50.874;7.028;2022-10-16T00:21:30;2.20;;;0.97;;
71503;SDS011;59323;50.874;7.028;2022-10-16T00:23:59;3.13;;;1.00;;
71503;SDS011;59323;50.874;7.028;2022-10-16T00:26:27;2.30;;;1.10;;
71503;SDS011;59323;50.874;7.028;2022-10-16T00:28:54;2.15;;;0.75;;
71503;SDS011;59323;50.874;7.028;2022-10-16T00:31:20;2.00;;;0.70;;
71503;SDS011;59323;50.874;7.028;2022-10-16T00:33:47;2.45;;;0.95;;
71503;SDS011;59323;50.874;7.028;2022-10-16T00:36:13;2.20;;;1.23;;
71503;SDS011;59323;50.874;7.028;2022-10-16T00:38:41;3.22;;;1.10;;
71503;SDS011;59323;50.874;7.028;2022-10-16T00:41:07;3.33;;;1.00;;
71503;SDS011;59323;50.874;7.028;2022-10-16T00:46:18;2.22;;;0.90;;
71503;SDS011;59323;50.874;7.028;2022-10-16T00:48:52;3.73;;;0.80;;
71503;SDS011;59323;50.874;7.028;2022-10-16T00:51:30;2.47;;;1.08;;
71503;SDS011;59323;50.874;7.028;2022-10-16T00:54:02;1.98;;;0.80;;
71503;SDS011;59323;50.874;7.028;2022-10-16T00:56:31;2.85;;;0.70;;
71503;SDS011;59323;50.874;7.028;2022-10-16T00:58:57;2.70;;;0.97;;
71503;SDS011;59323;50.874;7.028;2022-10-16T01:01:24;2.63;;;1.00;;
71503;SDS011;59323;50.874;7.028;2022-10-16T01:03:50;2.08;;;0.77;;
71503;SDS011;59323;50.874;7.028;2022-10-16T01:11:33;2.40;;;0.77;;
71503;SDS011;59323;50.874;7.028;2022-10-16T01:14:11;2.67;;;1.40;;
71503;SDS011;59323;50.874;7.028;2022-10-16T01:16:47;3.38;;;0.93;;
71503;SDS011;59323;50.874;7.028;2022-10-16T01:22:04;1.95;;;0.70;;
71503;SDS011;59323;50.874;7.028;2022-10-16T01:24:33;2.08;;;1.00;;
71503;SDS011;59323;50.874;7.028;2022-10-16T01:29:54;2.88;;;1.02;;
71503;SDS011;59323;50.874;7.028;2022-10-16T01:37:39;1.90;;;0.90;;
71503;SDS011;59323;50.874;7.028;2022-10-16T01:40:11;2.50;;;0.93;;
71503;SDS011;59323;50.874;7.028;2022-10-16T01:42:41;3.35;;;1.30;;
71503;SDS011;59323;50.874;7.028;2022-10-16T01:45:11;2.90;;;1.08;;
71503;SDS011;59323;50.874;7.028;2022-10-16T01:47:39;3.20;;;1.08;;
71503;SDS011;59323;50.874;7.028;2022-10-16T01:50:06;3.05;;;1.00;;
71503;SDS011;59323;50.874;7.028;2022-10-16T01:52:34;3.50;;;1.30;;
71503;SDS011;59323;50.874;7.028;2022-10-16T01:55:03;1.98;;;1.08;;
71503;SDS011;59323;50.874;7.028;2022-10-16T01:57:31;4.97;;;1.52;;
71503;SDS011;59323;50.874;7.028;2022-10-16T02:00:02;3.03;;;1.13;;
71503;SDS011;59323;50.874;7.028;2022-10-16T02:02:32;3.10;;;1.42;;
71503;SDS011;59323;50.874;7.028;2022-10-16T02:05:04;3.10;;;1.00;;
71503;SDS011;59323;50.874;7.028;2022-10-16T02:07:38;2.60;;;1.08;;
71503;SDS011;59323;50.874;7.028;2022-10-16T02:10:06;3.33;;;1.02;;
71503;SDS011;59323;50.874;7.028;2022-10-16T02:12:32;3.28;;;1.10;;
71503;SDS011;59323;50.874;7.028;2022-10-16T02:15:00;3.73;;;1.03;;
71503;SDS011;59323;50.874;7.028;2022-10-16T02:17:25;3.50;;;1.23;;
71503;SDS011;59323;50.874;7.028;2022-10-16T02:19:52;2.70;;;0.90;;
71503;SDS011;59323;50.874;7.028;2022-10-16T02:22:27;2.27;;;1.00;;
71503;SDS011;59323;50.874;7.028;2022-10-16T02:27:38;3.72;;;1.27;;
71503;SDS011;59323;50.874;7.028;2022-10-16T02:30:27;3.05;;;1.10;;
71503;SDS011;59323;50.874;7.028;2022-10-16T02:32:57;3.30;;;1.17;;
71503;SDS011;59323;50.874;7.028;2022-10-16T02:35:25;4.43;;;1.33;;
71503;SDS011;59323;50.874;7.028;2022-10-16T02:37:52;3.03;;;1.40;;
71503;SDS011;59323;50.874;7.028;2022-10-16T02:40:19;2.70;;;0.77;;
71503;SDS011;59323;50.874;7.028;2022-10-16T02:42:49;3.45;;;1.30;;
71503;SDS011;59323;50.874;7.028;2022-10-16T02:45:18;3.40;;;1.17;;
71503;SDS011;59323;50.874;7.028;2022-10-16T02:47:43;4.40;;;1.37;;
71503;SDS011;59323;50.874;7.028;2022-10-16T02:50:09;2.93;;;1.10;;
71503;SDS011;59323;50.874;7.028;2022-10-16T02:52:34;2.47;;;1.20;;
71503;SDS011;59323;50.874;7.028;2022-10-16T02:55:00;3.40;;;1.10;;
71503;SDS011;59323;50.874;7.028;2022-10-16T02:57:25;2.57;;;1.20;;
71503;SDS011;59323;50.874;7.028;2022-10-16T02:59:51;3.40;;;1.13;;
71503;SDS011;59323;50.874;7.028;2022-10-16T03:02:16;5.00;;;1.10;;
71503;SDS011;59323;50.874;7.028;2022-10-16T03:04:42;4.93;;;1.27;;
71503;SDS011;59323;50.874;7.028;2022-10-16T03:07:07;5.80;;;1.27;;
71503;SDS011;59323;50.874;7.028;2022-10-16T03:09:32;5.93;;;1.37;;
71503;SDS011;59323;50.874;7.028;2022-10-16T03:11:58;3.72;;;1.17;;
71503;SDS011;59323;50.874;7.028;2022-10-16T03:14:23;3.13;;;1.30;;
71503;SDS011;59323;50.874;7.028;2022-10-16T03:16:49;4.23;;;1.20;;
71503;SDS011;59323;50.874;7.028;2022-10-16T03:19:15;2.60;;;1.13;;
71503;SDS011;59323;50.874;7.028;2022-10-16T03:21:41;3.13;;;1.50;;
71503;SDS011;59323;50.874;7.028;2022-10-16T03:24:07;3.92;;;1.75;;
71503;SDS011;59323;50.874;7.028;2022-10-16T03:26:32;3.03;;;1.00;;
71503;SDS011;59323;50.874;7.028;2022-10-16T03:28:57;4.37;;;1.40;;
71503;SDS011;59323;50.874;7.028;2022-10-16T03:31:23;2.80;;;1.13;;
71503;SDS011;59323;50.874;7.028;2022-10-16T03:33:48;2.53;;;1.37;;
71503;SDS011;59323;50.874;7.028;2022-10-16T03:36:13;3.03;;;1.15;;
71503;SDS011;59323;50.874;7.028;2022-10-16T03:38:39;2.40;;;1.10;;
71503;SDS011;59323;50.874;7.028;2022-10-16T03:41:04;2.90;;;1.07;;
71503;SDS011;59323;50.874;7.028;2022-10-16T03:43:30;5.37;;;1.20;;
71503;SDS011;59323;50.874;7.028;2022-10-16T03:45:55;4.27;;;1.07;;
71503;SDS011;59323;50.874;7.028;2022-10-16T03:48:20;5.10;;;1.03;;
71503;SDS011;59323;50.874;7.028;2022-10-16T03:50:46;3.37;;;0.97;;
71503;SDS011;59323;50.874;7.028;2022-10-16T03:53:13;4.30;;;1.10;;
71503;SDS011;59323;50.874;7.028;2022-10-16T03:55:41;3.60;;;1.13;;
71503;SDS011;59323;50.874;7.028;2022-10-16T03:58:07;4.17;;;1.37;;
71503;SDS011;59323;50.874;7.028;2022-10-16T04:00:32;3.73;;;0.93;;
71503;SDS011;59323;50.874;7.028;2022-10-16T04:02:57;4.90;;;1.07;;
71503;SDS011;59323;50.874;7.028;2022-10-16T04:05:23;2.53;;;1.13;;
71503;SDS011;59323;50.874;7.028;2022-10-16T04:07:49;2.13;;;1.05;;
71503;SDS011;59323;50.874;7.028;2022-10-16T04:10:14;1.60;;;0.80;;
71503;SDS011;59323;50.874;7.028;2022-10-16T04:12:39;2.53;;;1.20;;
71503;SDS011;59323;50.874;7.028;2022-10-16T04:15:05;1.97;;;0.80;;
71503;SDS011;59323;50.874;7.028;2022-10-16T04:17:30;3.30;;;1.00;;
71503;SDS011;59323;50.874;7.028;2022-10-16T04:19:56;1.83;;;1.00;;
71503;SDS011;59323;50.874;7.028;2022-10-16T04:22:21;2.03;;;0.90;;
71503;SDS011;59323;50.874;7.028;2022-10-16T04:24:46;3.30;;;1.20;;
71503;SDS011;59323;50.874;7.028;2022-10-16T04:27:12;1.50;;;0.77;;
71503;SDS011;59323;50.874;7.028;2022-10-16T04:29:37;1.63;;;0.60;;
71503;SDS011;59323;50.874;7.028;2022-10-16T04:32:02;3.13;;;0.77;;
71503;SDS011;59323;50.874;7.028;2022-10-16T04:34:28;1.93;;;0.90;;
71503;SDS011;59323;50.874;7.028;2022-10-16T04:36:53;3.97;;;1.00;;
71503;SDS011;59323;50.874;7.028;2022-10-16T04:39:19;2.70;;;0.70;;
71503;SDS011;59323;50.874;7.028;2022-10-16T04:41:44;2.70;;;0.90;;
71503;SDS011;59323;50.874;7.028;2022-10-16T04:44:09;2.20;;;0.83;;
71503;SDS011;59323;50.874;7.028;2022-10-16T04:46:35;2.83;;;0.60;;
71503;SDS011;59323;50.874;7.028;2022-10-16T04:49:00;2.30;;;0.90;;
71503;SDS011;59323;50.874;7.028;2022-10-16T04:51:25;2.10;;;0.85;;
71503;SDS011;59323;50.874;7.028;2022-10-16T04:53:52;7.70;;;1.00;;
71503;SDS011;59323;50.874;7.028;2022-10-16T04:56:19;5.00;;;0.90;;
71503;SDS011;59323;50.874;7.028;2022-10-16T04:58:45;1.60;;;0.80;;
71503;SDS011;59323;50.874;7.028;2022-10-16T05:01:11;3.37;;;0.90;;
71503;SDS011;59323;50.874;7.028;2022-10-16T05:03:36;1.40;;;0.80;;
71503;SDS011;59323;50.874;7.028;2022-10-16T05:06:01;5.20;;;1.30;;
71503;SDS011;59323;50.874;7.028;2022-10-16T05:08:29;3.53;;;0.80;;
71503;SDS011;59323;50.874;7.028;2022-10-16T05:10:54;1.45;;;0.75;;
71503;SDS011;59323;50.874;7.028;2022-10-16T05:13:19;1.93;;;0.80;;
71503;SDS011;59323;50.874;7.028;2022-10-16T05:15:48;2.63;;;1.03;;
71503;SDS011;59323;50.874;7.028;2022-10-16T05:18:13;3.28;;;1.00;;
71503;SDS011;59323;50.874;7.028;2022-10-16T05:20:39;2.83;;;1.03;;
71503;SDS011;59323;50.874;7.028;2022-10-16T05:23:05;2.97;;;0.82;;
71503;SDS011;59323;50.874;7.028;2022-10-16T05:25:31;4.07;;;0.83;;
71503;SDS011;59323;50.874;7.028;2022-10-16T05:27:56;4.40;;;0.90;;
71503;SDS011;59323;50.874;7.028;2022-10-16T05:30:21;2.87;;;1.00;;
71503;SDS011;59323;50.874;7.028;2022-10-16T05:32:47;6.63;;;1.30;;
71503;SDS011;59323;50.874;7.028;2022-10-16T05:35:14;2.75;;;0.82;;
71503;SDS011;59323;50.874;7.028;2022-10-16T05:37:40;2.40;;;1.00;;
71503;SDS011;59323;50.874;7.028;2022-10-16T05:40:06;2.43;;;1.10;;
71503;SDS011;59323;50.874;7.028;2022-10-16T05:42:32;1.83;;;0.90;;
71503;SDS011;59323;50.874;7.028;2022-10-16T05:44:57;7.07;;;1.37;;
71503;SDS011;59323;50.874;7.028;2022-10-16T05:47:22;3.63;;;1.00;;
71503;SDS011;59323;50.874;7.028;2022-10-16T05:49:47;2.93;;;0.90;;
71503;SDS011;59323;50.874;7.028;2022-10-16T05:52:13;2.47;;;0.95;;
71503;SDS011;59323;50.874;7.028;2022-10-16T05:54:38;6.43;;;1.20;;
71503;SDS011;59323;50.874;7.028;2022-10-16T05:57:03;2.93;;;0.83;;
71503;SDS011;59323;50.874;7.028;2022-10-16T05:59:30;2.55;;;0.88;;
71503;SDS011;59323;50.874;7.028;2022-10-16T06:01:56;2.43;;;0.80;;
71503;SDS011;59323;50.874;7.028;2022-10-16T06:04:21;1.40;;;0.80;;
71503;SDS011;59323;50.874;7.028;2022-10-16T06:06:47;2.47;;;1.10;;
71503;SDS011;59323;50.874;7.028;2022-10-16T06:09:12;2.17;;;0.87;;
71503;SDS011;59323;50.874;7.028;2022-10-16T06:11:37;3.00;;;0.80;;
71503;SDS011;59323;50.874;7.028;2022-10-16T06:14:03;2.73;;;1.07;;
71503;SDS011;59323;50.874;7.028;2022-10-16T06:16:31;3.13;;;1.02;;
71503;SDS011;59323;50.874;7.028;2022-10-16T06:19:00;2.60;;;1.00;;
71503;SDS011;59323;50.874;7.028;2022-10-16T06:21:27;3.95;;;0.93;;
71503;SDS011;59323;50.874;7.028;2022-10-16T06:23:54;2.10;;;0.90;;
71503;SDS011;59323;50.874;7.028;2022-10-16T06:26:21;5.30;;;1.15;;
71503;SDS011;59323;50.874;7.028;2022-10-16T06:28:48;3.13;;;1.40;;
71503;SDS011;59323;50.874;7.028;2022-10-16T06:31:15;3.35;;;1.50;;
71503;SDS011;59323;50.874;7.028;2022-10-16T06:33:41;5.07;;;1.40;;
71503;SDS011;59323;50.874;7.028;2022-10-16T06:36:08;3.23;;;1.27;;
71503;SDS011;59323;50.874;7.028;2022-10-16T06:38:35;3.38;;;1.25;;
71503;SDS011;59323;50.874;7.028;2022-10-16T06:41:02;2.70;;;1.10;;
71503;SDS011;59323;50.874;7.028;2022-10-16T06:43:28;2.42;;;1.13;;
71503;SDS011;59323;50.874;7.028;2022-10-16T06:45:57;4.83;;;1.40;;
71503;SDS011;59323;50.874;7.028;2022-10-16T06:48:24;3.28;;;1.27;;
71503;SDS011;59323;50.874;7.028;2022-10-16T06:51:03;3.70;;;1.20;;
71503;SDS011;59323;50.874;7.028;2022-10-16T06:53:31;6.87;;;1.30;;
71503;SDS011;59323;50.874;7.028;2022-10-16T06:58:54;5.35;;;1.65;;
71503;SDS011;59323;50.874;7.028;2022-10-16T07:01:21;3.90;;;1.17;;
71503;SDS011;59323;50.874;7.028;2022-10-16T07:03:48;3.92;;;1.60;;
71503;SDS011;59323;50.874;7.028;2022-10-16T07:06:16;2.50;;;1.20;;
71503;SDS011;59323;50.874;7.028;2022-10-16T07:08:43;2.55;;;1.30;;
71503;SDS011;59323;50.874;7.028;2022-10-16T07:11:11;5.37;;;1.50;;
71503;SDS011;59323;50.874;7.028;2022-10-16T07:13:38;2.67;;;1.42;;
71503;SDS011;59323;50.874;7.028;2022-10-16T07:16:09;4.85;;;1.52;;
71503;SDS011;59323;50.874;7.028;2022-10-16T07:18:36;4.65;;;1.45;;
71503;SDS011;59323;50.874;7.028;2022-10-16T07:21:07;2.30;;;1.15;;
71503;SDS011;59323;50.874;7.028;2022-10-16T07:23:34;2.37;;;1.00;;
71503;SDS011;59323;50.874;7.028;2022-10-16T07:26:00;2.72;;;1.10;;
71503;SDS011;59323;50.874;7.028;2022-10-16T07:28:26;3.07;;;1.30;;
71503;SDS011;59323;50.874;7.028;2022-10-16T07:30:52;5.15;;;1.27;;
71503;SDS011;59323;50.874;7.028;2022-10-16T07:33:17;3.40;;;1.17;;
71503;SDS011;59323;50.874;7.028;2022-10-16T07:35:52;2.77;;;1.40;;
71503;SDS011;59323;50.874;7.028;2022-10-16T07:38:19;2.78;;;1.30;;
71503;SDS011;59323;50.874;7.028;2022-10-16T07:40:45;3.57;;;1.20;;
71503;SDS011;59323;50.874;7.028;2022-10-16T07:43:11;3.28;;;1.55;;
71503;SDS011;59323;50.874;7.028;2022-10-16T07:45:37;3.65;;;1.50;;
71503;SDS011;59323;50.874;7.028;2022-10-16T07:48:03;5.10;;;1.70;;
71503;SDS011;59323;50.874;7.028;2022-10-16T07:50:28;2.97;;;1.40;;
71503;SDS011;59323;50.874;7.028;2022-10-16T07:52:54;3.20;;;1.60;;
71503;SDS011;59323;50.874;7.028;2022-10-16T07:55:19;5.33;;;1.90;;
71503;SDS011;59323;50.874;7.028;2022-10-16T07:57:44;2.80;;;1.47;;
71503;SDS011;59323;50.874;7.028;2022-10-16T08:00:10;3.67;;;1.50;;
71503;SDS011;59323;50.874;7.028;2022-10-16T08:02:39;3.20;;;1.58;;
71503;SDS011;59323;50.874;7.028;2022-10-16T08:05:05;3.93;;;1.30;;
71503;SDS011;59323;50.874;7.028;2022-10-16T08:07:31;3.38;;;1.58;;
71503;SDS011;59323;50.874;7.028;2022-10-16T08:09:56;6.73;;;1.90;;
71503;SDS011;59323;50.874;7.028;2022-10-16T08:12:23;3.40;;;1.73;;
71503;SDS011;59323;50.874;7.028;2022-10-16T08:14:48;4.10;;;1.70;;
71503;SDS011;59323;50.874;7.028;2022-10-16T08:17:17;5.03;;;1.80;;
71503;SDS011;59323;50.874;7.028;2022-10-16T08:22:59;5.38;;;1.83;;
71503;SDS011;59323;50.874;7.028;2022-10-16T08:25:27;4.22;;;1.70;;
71503;SDS011;59323;50.874;7.028;2022-10-16T08:27:53;4.40;;;1.60;;
71503;SDS011;59323;50.874;7.028;2022-10-16T08:30:19;4.32;;;1.80;;
71503;SDS011;59323;50.874;7.028;2022-10-16T08:32:46;8.13;;;2.10;;
71503;SDS011;59323;50.874;7.028;2022-10-16T08:35:12;6.18;;;1.63;;
71503;SDS011;59323;50.874;7.028;2022-10-16T08:37:39;4.28;;;1.40;;
71503;SDS011;59323;50.874;7.028;2022-10-16T08:40:05;3.17;;;1.37;;
71503;SDS011;59323;50.874;7.028;2022-10-16T08:48:20;3.10;;;1.27;;
71503;SDS011;59323;50.874;7.028;2022-10-16T08:51:00;4.40;;;1.50;;
71503;SDS011;59323;50.874;7.028;2022-10-16T08:53:28;4.17;;;1.30;;
71503;SDS011;59323;50.874;7.028;2022-10-16T08:56:14;4.03;;;1.20;;
71503;SDS011;59323;50.874;7.028;2022-10-16T08:58:47;3.83;;;1.00;;
71503;SDS011;59323;50.874;7.028;2022-10-16T09:01:14;3.65;;;1.20;;
71503;SDS011;59323;50.874;7.028;2022-10-16T09:11:57;1.85;;;0.70;;
71503;SDS011;59323;50.874;7.028;2022-10-16T09:14:34;4.22;;;0.70;;
71503;SDS011;59323;50.874;7.028;2022-10-16T09:19:46;3.97;;;1.08;;
71503;SDS011;59323;50.874;7.028;2022-10-16T09:22:18;1.00;;;0.60;;
71503;SDS011;59323;50.874;7.028;2022-10-16T09:24:50;1.48;;;0.70;;
71503;SDS011;59323;50.874;7.028;2022-10-16T09:27:16;2.17;;;0.80;;
71503;SDS011;59323;50.874;7.028;2022-10-16T09:29:50;1.30;;;0.80;;
71503;SDS011;59323;50.874;7.028;2022-10-16T09:32:17;4.07;;;1.00;;
71503;SDS011;59323;50.874;7.028;2022-10-16T09:34:48;2.30;;;0.90;;
71503;SDS011;59323;50.874;7.028;2022-10-16T09:37:18;1.48;;;0.70;;
71503;SDS011;59323;50.874;7.028;2022-10-16T09:39:49;1.55;;;0.80;;
71503;SDS011;59323;50.874;7.028;2022-10-16T09:42:21;1.67;;;0.80;;
71503;SDS011;59323;50.874;7.028;2022-10-16T09:44:49;5.25;;;1.45;;
71503;SDS011;59323;50.874;7.028;2022-10-16T09:47:20;3.83;;;0.90;;
71503;SDS011;59323;50.874;7.028;2022-10-16T09:49:55;2.13;;;0.70;;
71503;SDS011;59323;50.874;7.028;2022-10-16T09:52:27;1.95;;;1.15;;
71503;SDS011;59323;50.874;7.028;2022-10-16T09:55:01;3.05;;;0.90;;
71503;SDS011;59323;50.874;7.028;2022-10-16T09:57:48;3.20;;;0.90;;
71503;SDS011;59323;50.874;7.028;2022-10-16T10:00:17;3.47;;;0.80;;
71503;SDS011;59323;50.874;7.028;2022-10-16T10:02:43;1.63;;;0.70;;
71503;SDS011;59323;50.874;7.028;2022-10-16T10:05:23;1.33;;;0.60;;
71503;SDS011;59323;50.874;7.028;2022-10-16T10:07:55;2.25;;;0.93;;
71503;SDS011;59323;50.874;7.028;2022-10-16T10:10:24;2.60;;;1.10;;
71503;SDS011;59323;50.874;7.028;2022-10-16T10:12:52;1.97;;;0.83;;
71503;SDS011;59323;50.874;7.028;2022-10-16T10:15:19;1.92;;;0.80;;
71503;SDS011;59323;50.874;7.028;2022-10-16T10:20:30;4.27;;;1.37;;
71503;SDS011;59323;50.874;7.028;2022-10-16T10:22:59;1.55;;;0.80;;
71503;SDS011;59323;50.874;7.028;2022-10-16T10:25:34;2.33;;;0.80;;
71503;SDS011;59323;50.874;7.028;2022-10-16T10:31:17;5.70;;;0.90;;
71503;SDS011;59323;50.874;7.028;2022-10-16T10:34:02;2.95;;;0.80;;
71503;SDS011;59323;50.874;7.028;2022-10-16T10:36:56;1.90;;;0.70;;
71503;SDS011;59323;50.874;7.028;2022-10-16T10:39:41;2.17;;;0.80;;
71503;SDS011;59323;50.874;7.028;2022-10-16T10:50:51;3.85;;;0.90;;
71503;SDS011;59323;50.874;7.028;2022-10-16T10:53:24;1.85;;;0.60;;
71503;SDS011;59323;50.874;7.028;2022-10-16T10:56:14;2.28;;;0.70;;
71503;SDS011;59323;50.874;7.028;2022-10-16T10:59:04;2.67;;;0.80;;
71503;SDS011;59323;50.874;7.028;2022-10-16T11:01:48;3.08;;;0.65;;
71503;SDS011;59323;50.874;7.028;2022-10-16T11:09:57;1.98;;;0.90;;
71503;SDS011;59323;50.874;7.028;2022-10-16T11:12:35;1.33;;;0.70;;
71503;SDS011;59323;50.874;7.028;2022-10-16T11:15:23;1.75;;;0.63;;
71503;SDS011;59323;50.874;7.028;2022-10-16T11:17:57;2.58;;;0.60;;
71503;SDS011;59323;50.874;7.028;2022-10-16T11:20:42;11.43;;;1.02;;
71503;SDS011;59323;50.874;7.028;2022-10-16T11:23:14;3.47;;;0.80;;
71503;SDS011;59323;50.874;7.028;2022-10-16T11:25:46;2.67;;;0.70;;
71503;SDS011;59323;50.874;7.028;2022-10-16T11:37:10;1.63;;;0.82;;
71503;SDS011;59323;50.874;7.028;2022-10-16T11:39:46;1.33;;;0.50;;
71503;SDS011;59323;50.874;7.028;2022-10-16T11:48:27;2.35;;;0.90;;
71503;SDS011;59323;50.874;7.028;2022-10-16T11:51:11;1.90;;;0.70;;
71503;SDS011;59323;50.874;7.028;2022-10-16T11:53:55;1.73;;;0.83;;
71503;SDS011;59323;50.874;7.028;2022-10-16T11:56:38;2.13;;;0.75;;
71503;SDS011;59323;50.874;7.028;2022-10-16T11:59:13;2.92;;;0.70;;
71503;SDS011;59323;50.874;7.028;2022-10-16T12:01:52;2.38;;;0.88;;
71503;SDS011;59323;50.874;7.028;2022-10-16T12:04:49;1.80;;;0.80;;
71503;SDS011;59323;50.874;7.028;2022-10-16T12:07:27;2.83;;;0.60;;
71503;SDS011;59323;50.874;7.028;2022-10-16T12:10:09;2.20;;;0.57;;
71503;SDS011;59323;50.874;7.028;2022-10-16T12:12:43;3.50;;;0.80;;
71503;SDS011;59323;50.874;7.028;2022-10-16T12:15:30;2.42;;;0.70;;
71503;SDS011;59323;50.874;7.028;2022-10-16T12:17:57;2.25;;;0.80;;
71503;SDS011;59323;50.874;7.028;2022-10-16T12:20:27;2.10;;;0.60;;
71503;SDS011;59323;50.874;7.028;2022-10-16T12:22:58;1.67;;;0.60;;
71503;SDS011;59323;50.874;7.028;2022-10-16T12:25:34;1.33;;;0.60;;
71503;SDS011;59323;50.874;7.028;2022-10-16T12:28:03;1.83;;;1.00;;
71503;SDS011;59323;50.874;7.028;2022-10-16T12:30:32;1.13;;;0.75;;
71503;SDS011;59323;50.874;7.028;2022-10-16T12:33:04;1.25;;;0.73;;
71503;SDS011;59323;50.874;7.028;2022-10-16T12:35:43;1.80;;;0.63;;
71503;SDS011;59323;50.874;7.028;2022-10-16T12:41:07;1.20;;;0.60;;
71503;SDS011;59323;50.874;7.028;2022-10-16T12:48:41;3.08;;;0.85;;
71503;SDS011;59323;50.874;7.028;2022-10-16T12:53:59;1.87;;;0.77;;
71503;SDS011;59323;50.874;7.028;2022-10-16T13:19:20;2.35;;;0.82;;
71503;SDS011;59323;50.874;7.028;2022-10-16T13:24:57;2.42;;;0.85;;
71503;SDS011;59323;50.874;7.028;2022-10-16T13:27:45;2.60;;;0.82;;
71503;SDS011;59323;50.874;7.028;2022-10-16T13:30:27;3.40;;;0.80;;
71503;SDS011;59323;50.874;7.028;2022-10-16T13:33:02;3.92;;;1.27;;
71503;SDS011;59323;50.874;7.028;2022-10-16T13:35:30;2.97;;;1.00;;
71503;SDS011;59323;50.874;7.028;2022-10-16T13:38:14;2.50;;;1.10;;
71503;SDS011;59323;50.874;7.028;2022-10-16T13:40:49;3.45;;;1.10;;
71503;SDS011;59323;50.874;7.028;2022-10-16T13:43:27;2.45;;;0.90;;
71503;SDS011;59323;50.874;7.028;2022-10-16T13:46:18;5.47;;;1.27;;
71503;SDS011;59323;50.874;7.028;2022-10-16T13:49:02;3.10;;;1.43;;
71503;SDS011;59323;50.874;7.028;2022-10-16T13:51:36;2.90;;;1.05;;
71503;SDS011;59323;50.874;7.028;2022-10-16T13:56:51;1.23;;;0.90;;
71503;SDS011;59323;50.874;7.028;2022-10-16T13:59:33;1.90;;;1.30;;
71503;SDS011;59323;50.874;7.028;2022-10-16T14:02:25;1.90;;;0.70;;
71503;SDS011;59323;50.874;7.028;2022-10-16T14:05:00;0.90;;;0.60;;
71503;SDS011;59323;50.874;7.028;2022-10-16T14:07:38;1.30;;;0.73;;
71503;SDS011;59323;50.874;7.028;2022-10-16T14:11:21;1.70;;;0.60;;
71503;SDS011;59323;50.874;7.028;2022-10-16T14:13:29;3.70;;;1.00;;
71503;SDS011;59323;50.874;7.028;2022-10-16T14:15:59;3.53;;;0.70;;
71503;SDS011;59323;50.874;7.028;2022-10-16T14:19:34;5.53;;;0.82;;
71503;SDS011;59323;50.874;7.028;2022-10-16T14:21:42;2.75;;;0.60;;
71503;SDS011;59323;50.874;7.028;2022-10-16T14:24:21;1.95;;;0.65;;
71503;SDS011;59323;50.874;7.028;2022-10-16T14:26:51;1.70;;;0.93;;
71503;SDS011;59323;50.874;7.028;2022-10-16T14:29:21;1.02;;;0.60;;
71503;SDS011;59323;50.874;7.028;2022-10-16T14:31:56;2.35;;;0.80;;
71503;SDS011;59323;50.874;7.028;2022-10-16T14:34:52;2.20;;;0.80;;
71503;SDS011;59323;50.874;7.028;2022-10-16T14:37:25;2.53;;;0.80;;
71503;SDS011;59323;50.874;7.028;2022-10-16T14:39:52;1.70;;;0.83;;
71503;SDS011;59323;50.874;7.028;2022-10-16T14:42:20;3.70;;;0.77;;
71503;SDS011;59323;50.874;7.028;2022-10-16T14:44:49;2.88;;;0.70;;
71503;SDS011;59323;50.874;7.028;2022-10-16T14:47:21;1.30;;;0.70;;
71503;SDS011;59323;50.874;7.028;2022-10-16T14:49:51;2.85;;;0.65;;
71503;SDS011;59323;50.874;7.028;2022-10-16T14:52:18;1.30;;;0.73;;
71503;SDS011;59323;50.874;7.028;2022-10-16T14:54:43;1.65;;;0.50;;
71503;SDS011;59323;50.874;7.028;2022-10-16T14:57:24;2.20;;;0.60;;
71503;SDS011;59323;50.874;7.028;2022-10-16T14:59:58;1.30;;;0.60;;
71503;SDS011;59323;50.874;7.028;2022-10-16T15:04:57;2.88;;;0.60;;
71503;SDS011;59323;50.874;7.028;2022-10-16T15:07:23;4.47;;;0.70;;
71503;SDS011;59323;50.874;7.028;2022-10-16T15:09:49;2.45;;;0.57;;
71503;SDS011;59323;50.874;7.028;2022-10-16T15:12:15;1.55;;;0.75;;
71503;SDS011;59323;50.874;7.028;2022-10-16T15:14:44;1.27;;;0.70;;
71503;SDS011;59323;50.874;7.028;2022-10-16T15:17:10;1.52;;;1.10;;
71503;SDS011;59323;50.874;7.028;2022-10-16T15:19:36;1.50;;;0.80;;
71503;SDS011;59323;50.874;7.028;2022-10-16T15:22:01;1.38;;;0.60;;
71503;SDS011;59323;50.874;7.028;2022-10-16T15:24:27;4.30;;;0.80;;
71503;SDS011;59323;50.874;7.028;2022-10-16T15:26:52;1.57;;;1.00;;
71503;SDS011;59323;50.874;7.028;2022-10-16T15:29:17;1.50;;;0.77;;
71503;SDS011;59323;50.874;7.028;2022-10-16T15:31:43;3.30;;;0.70;;
71503;SDS011;59323;50.874;7.028;2022-10-16T15:34:09;4.80;;;1.13;;
71503;SDS011;59323;50.874;7.028;2022-10-16T15:36:35;1.67;;;0.70;;
71503;SDS011;59323;50.874;7.028;2022-10-16T15:39:08;2.72;;;0.77;;
71503;SDS011;59323;50.874;7.028;2022-10-16T15:41:38;2.43;;;1.00;;
71503;SDS011;59323;50.874;7.028;2022-10-16T15:44:04;3.55;;;0.80;;
71503;SDS011;59323;50.874;7.028;2022-10-16T15:46:29;2.73;;;1.03;;
71503;SDS011;59323;50.874;7.028;2022-10-16T15:48:56;2.05;;;1.20;;
71503;SDS011;59323;50.874;7.028;2022-10-16T15:51:23;4.70;;;1.33;;
71503;SDS011;59323;50.874;7.028;2022-10-16T15:53:49;3.77;;;0.80;;
71503;SDS011;59323;50.874;7.028;2022-10-16T15:56:15;1.80;;;1.30;;
71503;SDS011;59323;50.874;7.028;2022-10-16T15:58:41;3.05;;;1.17;;
71503;SDS011;59323;50.874;7.028;2022-10-16T16:01:07;4.97;;;1.10;;
71503;SDS011;59323;50.874;7.028;2022-10-16T16:03:34;4.15;;;1.52;;
71503;SDS011;59323;50.874;7.028;2022-10-16T16:06:04;2.67;;;1.20;;
71503;SDS011;59323;50.874;7.028;2022-10-16T16:08:32;2.92;;;1.25;;
71503;SDS011;59323;50.874;7.028;2022-10-16T16:11:03;2.57;;;0.87;;
71503;SDS011;59323;50.874;7.028;2022-10-16T16:13:30;2.63;;;1.00;;
71503;SDS011;59323;50.874;7.028;2022-10-16T16:15:58;3.58;;;1.42;;
71503;SDS011;59323;50.874;7.028;2022-10-16T16:18:24;2.42;;;1.02;;
71503;SDS011;59323;50.874;7.028;2022-10-16T16:20:53;3.42;;;1.13;;
71503;SDS011;59323;50.874;7.028;2022-10-16T16:23:18;8.23;;;3.87;;
71503;SDS011;59323;50.874;7.028;2022-10-16T16:25:45;18.73;;;9.63;;
71503;SDS011;59323;50.874;7.028;2022-10-16T16:28:10;11.85;;;5.47;;
71503;SDS011;59323;50.874;7.028;2022-10-16T16:30:39;7.00;;;2.60;;
71503;SDS011;59323;50.874;7.028;2022-10-16T16:33:04;6.15;;;2.60;;
71503;SDS011;59323;50.874;7.028;2022-10-16T16:35:30;12.30;;;6.00;;
71503;SDS011;59323;50.874;7.028;2022-10-16T16:37:55;15.27;;;6.07;;
71503;SDS011;59323;50.874;7.028;2022-10-16T16:40:20;9.27;;;3.53;;
71503;SDS011;59323;50.874;7.028;2022-10-16T16:42:47;6.47;;;2.30;;
71503;SDS011;59323;50.874;7.028;2022-10-16T16:45:13;8.07;;;3.75;;
71503;SDS011;59323;50.874;7.028;2022-10-16T16:47:39;7.20;;;2.67;;
71503;SDS011;59323;50.874;7.028;2022-10-16T16:50:04;5.87;;;2.20;;
71503;SDS011;59323;50.874;7.028;2022-10-16T16:52:31;9.70;;;3.80;;
71503;SDS011;59323;50.874;7.028;2022-10-16T16:54:57;10.10;;;3.47;;
71503;SDS011;59323;50.874;7.028;2022-10-16T16:57:22;5.83;;;1.97;;
71503;SDS011;59323;50.874;7.028;2022-10-16T16:59:49;3.70;;;1.50;;
71503;SDS011;59323;50.874;7.028;2022-10-16T17:02:18;3.47;;;1.48;;
71503;SDS011;59323;50.874;7.028;2022-10-16T17:04:44;3.13;;;1.30;;
71503;SDS011;59323;50.874;7.028;2022-10-16T17:07:09;3.23;;;1.40;;